createdAt,value
2019-04-29T00:00:46.632Z,1019.08
2019-04-29T00:01:46.621Z,1019.10
2019-04-29T00:02:46.613Z,1019.05
2019-04-29T00:03:46.612Z,1019.06
2019-04-29T00:04:46.589Z,1019.09
2019-04-29T00:05:46.578Z,1019.10
2019-04-29T00:06:46.567Z,1019.10
2019-04-29T00:07:46.557Z,1019.07
2019-04-29T00:08:46.555Z,1019.08
2019-04-29T00:09:46.548Z,1019.09
2019-04-29T00:10:46.525Z,1019.10
2019-04-29T00:11:46.524Z,1019.11
2019-04-29T00:12:46.503Z,1019.10
2019-04-29T00:13:46.492Z,1019.10
2019-04-29T00:14:46.484Z,1019.14
2019-04-29T00:15:46.488Z,1019.12
2019-04-29T00:16:46.460Z,1019.12
2019-04-29T00:17:46.450Z,1019.11
2019-04-29T00:18:46.439Z,1019.06
2019-04-29T00:19:46.430Z,1019.10
2019-04-29T00:20:46.419Z,1019.13
2019-04-29T00:21:46.419Z,1019.10
2019-04-29T00:22:46.407Z,1019.10
2019-04-29T00:23:46.389Z,1019.13
2019-04-29T00:24:46.375Z,1019.08
2019-04-29T00:25:46.365Z,1019.09
2019-04-29T00:26:46.356Z,1019.10
2019-04-29T00:27:46.360Z,1019.13
2019-04-29T00:28:46.334Z,1019.13
2019-04-29T00:29:46.324Z,1019.13
2019-04-29T00:30:46.313Z,1019.15
2019-04-29T00:31:46.302Z,1019.11
2019-04-29T00:32:46.296Z,1019.08
2019-04-29T00:33:46.292Z,1019.05
2019-04-29T00:34:46.271Z,1019.14
2019-04-29T00:35:46.261Z,1019.15
2019-04-29T00:36:46.251Z,1019.10
2019-04-29T00:37:46.240Z,1019.14
2019-04-29T00:38:46.244Z,1019.16
2019-04-29T00:39:46.232Z,1019.13
2019-04-29T00:40:46.209Z,1019.15
2019-04-29T00:41:46.198Z,1019.10
2019-04-29T00:42:46.188Z,1019.18
2019-04-29T00:43:46.177Z,1019.17
2019-04-29T00:44:46.171Z,1019.16
2019-04-29T00:45:46.167Z,1019.17
2019-04-29T00:46:46.146Z,1019.17
2019-04-29T00:47:46.135Z,1019.25
2019-04-29T00:48:46.125Z,1019.21
2019-04-29T00:49:46.114Z,1019.24
2019-04-29T00:50:46.112Z,1019.22
2019-04-29T00:51:46.104Z,1019.23
2019-04-29T00:52:46.083Z,1019.21
2019-04-29T00:53:46.072Z,1019.27
2019-04-29T00:54:46.062Z,1019.24
2019-04-29T00:55:46.052Z,1019.23
2019-04-29T00:56:46.047Z,1019.17
2019-04-29T00:57:46.042Z,1019.22
2019-04-29T00:58:46.022Z,1019.23
2019-04-29T00:59:46.010Z,1019.20
2019-04-29T01:00:46.002Z,1019.18
2019-04-29T01:01:45.989Z,1019.24
2019-04-29T01:02:45.986Z,1019.21
2019-04-29T01:03:45.987Z,1019.19
2019-04-29T01:04:45.958Z,1019.14
2019-04-29T01:05:45.947Z,1019.12
2019-04-29T01:06:45.936Z,1019.15
2019-04-29T01:07:45.926Z,1019.18
2019-04-29T01:08:45.917Z,1019.20
2019-04-29T01:09:45.915Z,1019.18
2019-04-29T01:10:45.897Z,1019.22
2019-04-29T01:11:45.883Z,1019.19
2019-04-29T01:12:45.873Z,1019.18
2019-04-29T01:13:45.866Z,1019.19
2019-04-29T01:14:45.852Z,1019.18
2019-04-29T01:15:45.853Z,1019.22
2019-04-29T01:16:45.832Z,1019.20
2019-04-29T01:17:45.820Z,1019.20
2019-04-29T01:18:45.815Z,1019.21
2019-04-29T01:19:45.802Z,1019.23
2019-04-29T01:20:45.791Z,1019.23
2019-04-29T01:21:45.796Z,1019.24
2019-04-29T01:22:45.767Z,1019.21
2019-04-29T01:23:45.757Z,1019.19
2019-04-29T01:24:45.781Z,1019.26
2019-04-29T01:25:45.736Z,1019.22
2019-04-29T01:26:45.728Z,1019.19
2019-04-29T01:27:45.729Z,1019.22
2019-04-29T01:28:45.704Z,1019.24
2019-04-29T01:29:45.694Z,1019.24
2019-04-29T01:30:45.682Z,1019.26
2019-04-29T01:31:45.672Z,1019.25
2019-04-29T01:32:45.662Z,1019.27
2019-04-29T01:33:45.661Z,1019.25
2019-04-29T01:34:45.640Z,1019.31
2019-04-29T01:35:45.628Z,1019.31
2019-04-29T01:36:45.617Z,1019.34
2019-04-29T01:37:45.607Z,1019.30
2019-04-29T01:38:48.568Z,1019.31
2019-04-29T01:39:45.594Z,1019.31
2019-04-29T01:40:45.574Z,1019.30
2019-04-29T01:41:45.563Z,1019.35
2019-04-29T01:42:45.554Z,1019.34
2019-04-29T01:43:45.541Z,1019.34
2019-04-29T01:44:45.547Z,1019.39
2019-04-29T01:45:45.532Z,1019.35
2019-04-29T01:46:45.510Z,1019.29
2019-04-29T01:47:45.499Z,1019.31
2019-04-29T01:48:45.489Z,1019.35
2019-04-29T01:49:45.476Z,1019.38
2019-04-29T01:50:45.467Z,1019.35
2019-04-29T01:51:45.466Z,1019.36
2019-04-29T01:52:45.444Z,1019.39
2019-04-29T01:53:45.433Z,1019.39
2019-04-29T01:54:45.422Z,1019.38
2019-04-29T01:55:45.410Z,1019.41
2019-04-29T01:56:45.401Z,1019.39
2019-04-29T01:57:45.399Z,1019.43
2019-04-29T01:58:45.378Z,1019.41
2019-04-29T01:59:45.367Z,1019.42
2019-04-29T02:00:45.356Z,1019.44
2019-04-29T02:01:45.346Z,1019.48
2019-04-29T02:02:45.338Z,1019.48
2019-04-29T02:03:45.349Z,1019.49
2019-04-29T02:04:45.312Z,1019.48
2019-04-29T02:05:45.302Z,1019.46
2019-04-29T02:06:45.291Z,1019.45
2019-04-29T02:07:45.295Z,1019.50
2019-04-29T02:08:45.269Z,1019.55
2019-04-29T02:09:45.272Z,1019.56
2019-04-29T02:10:45.248Z,1019.56
2019-04-29T02:11:45.240Z,1019.54
2019-04-29T02:12:45.225Z,1019.54
2019-04-29T02:13:45.215Z,1019.58
2019-04-29T02:14:45.204Z,1019.57
2019-04-29T02:15:45.203Z,1019.50
2019-04-29T02:16:45.182Z,1019.50
2019-04-29T02:17:45.172Z,1019.53
2019-04-29T02:18:45.163Z,1019.54
2019-04-29T02:19:45.151Z,1019.51
2019-04-29T02:20:45.139Z,1019.47
2019-04-29T02:21:45.138Z,1019.53
2019-04-29T02:22:45.116Z,1019.53
2019-04-29T02:23:45.106Z,1019.59
2019-04-29T02:24:45.135Z,1019.59
2019-04-29T02:25:45.085Z,1019.54
2019-04-29T02:26:45.084Z,1019.52
2019-04-29T02:27:45.073Z,1019.53
2019-04-29T02:28:45.052Z,1019.57
2019-04-29T02:29:45.048Z,1019.56
2019-04-29T02:30:45.036Z,1019.59
2019-04-29T02:31:45.023Z,1019.63
2019-04-29T02:32:45.010Z,1019.65
2019-04-29T02:33:45.012Z,1019.66
2019-04-29T02:34:44.987Z,1019.65
2019-04-29T02:35:44.976Z,1019.63
2019-04-29T02:36:44.981Z,1019.62
2019-04-29T02:37:44.955Z,1019.58
2019-04-29T02:38:44.946Z,1019.57
2019-04-29T02:39:44.942Z,1019.59
2019-04-29T02:40:44.921Z,1019.61
2019-04-29T02:41:44.910Z,1019.62
2019-04-29T02:42:44.903Z,1019.59
2019-04-29T02:43:44.894Z,1019.57
2019-04-29T02:44:44.878Z,1019.60
2019-04-29T02:45:44.881Z,1019.57
2019-04-29T02:46:44.861Z,1019.60
2019-04-29T02:47:44.845Z,1019.56
2019-04-29T02:48:44.836Z,1019.56
2019-04-29T02:49:44.843Z,1019.54
2019-04-29T02:50:44.813Z,1019.56
2019-04-29T02:51:44.813Z,1019.53
2019-04-29T02:52:44.790Z,1019.56
2019-04-29T02:53:44.780Z,1019.66
2019-04-29T02:54:44.770Z,1019.62
2019-04-29T02:55:44.764Z,1019.51
2019-04-29T02:56:44.752Z,1019.56
2019-04-29T02:57:44.756Z,1019.53
2019-04-29T02:58:44.725Z,1019.54
2019-04-29T02:59:44.722Z,1019.53
2019-04-29T03:00:44.705Z,1019.56
2019-04-29T03:01:44.693Z,1019.55
2019-04-29T03:02:44.687Z,1019.58
2019-04-29T03:03:44.682Z,1019.52
2019-04-29T03:04:44.661Z,1019.56
2019-04-29T03:05:44.657Z,1019.53
2019-04-29T03:06:44.646Z,1019.50
2019-04-29T03:07:44.630Z,1019.55
2019-04-29T03:08:44.617Z,1019.53
2019-04-29T03:09:44.621Z,1019.52
2019-04-29T03:10:44.603Z,1019.51
2019-04-29T03:11:44.587Z,1019.55
2019-04-29T03:12:44.585Z,1019.49
2019-04-29T03:13:44.569Z,1019.52
2019-04-29T03:14:44.553Z,1019.50
2019-04-29T03:15:44.554Z,1019.54
2019-04-29T03:16:44.537Z,1019.52
2019-04-29T03:17:44.520Z,1019.48
2019-04-29T03:18:44.508Z,1019.51
2019-04-29T03:19:44.503Z,1019.51
2019-04-29T03:20:44.489Z,1019.48
2019-04-29T03:21:44.487Z,1019.54
2019-04-29T03:22:44.484Z,1019.49
2019-04-29T03:23:44.467Z,1019.51
2019-04-29T03:24:44.446Z,1019.47
2019-04-29T03:25:44.437Z,1019.46
2019-04-29T03:26:44.423Z,1019.42
2019-04-29T03:27:44.424Z,1019.45
2019-04-29T03:28:44.401Z,1019.43
2019-04-29T03:29:44.390Z,1019.48
2019-04-29T03:30:44.384Z,1019.45
2019-04-29T03:31:44.369Z,1019.44
2019-04-29T03:32:44.403Z,1019.45
2019-04-29T03:33:44.360Z,1019.45
2019-04-29T03:34:44.349Z,1019.45
2019-04-29T03:35:44.325Z,1019.41
2019-04-29T03:36:44.314Z,1019.40
2019-04-29T03:37:44.303Z,1019.38
2019-04-29T03:38:44.293Z,1019.38
2019-04-29T03:39:44.293Z,1019.41
2019-04-29T03:40:44.273Z,1019.39
2019-04-29T03:41:44.259Z,1019.43
2019-04-29T03:42:44.252Z,1019.42
2019-04-29T03:43:44.239Z,1019.40
2019-04-29T03:44:44.253Z,1019.40
2019-04-29T03:45:44.232Z,1019.45
2019-04-29T03:46:44.217Z,1019.48
2019-04-29T03:47:44.203Z,1019.46
2019-04-29T03:48:44.193Z,1019.48
2019-04-29T03:49:44.175Z,1019.51
2019-04-29T03:50:44.164Z,1019.50
2019-04-29T03:51:44.174Z,1019.51
2019-04-29T03:52:44.144Z,1019.50
2019-04-29T03:53:44.176Z,1019.53
2019-04-29T03:54:44.122Z,1019.49
2019-04-29T03:55:44.114Z,1019.51
2019-04-29T03:56:44.109Z,1019.54
2019-04-29T03:57:44.102Z,1019.58
2019-04-29T03:58:44.089Z,1019.48
2019-04-29T03:59:44.072Z,1019.45
2019-04-29T04:00:44.456Z,1019.46
2019-04-29T04:01:44.052Z,1019.47
2019-04-29T04:02:44.041Z,1019.51
2019-04-29T04:03:44.039Z,1019.50
2019-04-29T04:04:44.019Z,1019.56
2019-04-29T04:05:44.030Z,1019.56
2019-04-29T04:06:43.995Z,1019.60
2019-04-29T04:07:43.986Z,1019.56
2019-04-29T04:08:43.976Z,1019.61
2019-04-29T04:09:43.983Z,1019.62
2019-04-29T04:10:43.954Z,1019.65
2019-04-29T04:11:43.944Z,1019.65
2019-04-29T04:12:43.936Z,1019.66
2019-04-29T04:13:43.929Z,1019.65
2019-04-29T04:14:43.912Z,1019.66
2019-04-29T04:15:43.919Z,1019.60
2019-04-29T04:16:43.890Z,1019.67
2019-04-29T04:17:43.881Z,1019.64
2019-04-29T04:18:43.868Z,1019.67
2019-04-29T04:19:43.859Z,1019.68
2019-04-29T04:20:43.847Z,1019.66
2019-04-29T04:21:43.863Z,1019.67
2019-04-29T04:22:43.827Z,1019.67
2019-04-29T04:23:43.814Z,1019.70
2019-04-29T04:24:43.804Z,1019.67
2019-04-29T04:25:43.797Z,1019.68
2019-04-29T04:26:43.782Z,1019.66
2019-04-29T04:27:43.781Z,1019.67
2019-04-29T04:28:43.765Z,1019.71
2019-04-29T04:29:43.751Z,1019.70
2019-04-29T04:30:43.743Z,1019.69
2019-04-29T04:31:43.732Z,1019.72
2019-04-29T04:32:43.719Z,1019.77
2019-04-29T04:33:43.718Z,1019.72
2019-04-29T04:34:43.700Z,1019.70
2019-04-29T04:35:43.687Z,1019.76
2019-04-29T04:36:43.676Z,1019.72
2019-04-29T04:37:43.674Z,1019.71
2019-04-29T04:38:43.656Z,1019.68
2019-04-29T04:39:43.656Z,1019.71
2019-04-29T04:40:43.632Z,1019.69
2019-04-29T04:41:43.622Z,1019.68
2019-04-29T04:42:43.612Z,1019.71
2019-04-29T04:43:43.601Z,1019.73
2019-04-29T04:44:43.590Z,1019.73
2019-04-29T04:45:43.601Z,1019.76
2019-04-29T04:46:43.569Z,1019.77
2019-04-29T04:47:43.559Z,1019.76
2019-04-29T04:48:43.546Z,1019.83
2019-04-29T04:49:43.537Z,1019.87
2019-04-29T04:50:43.523Z,1019.82
2019-04-29T04:51:43.526Z,1019.82
2019-04-29T04:52:43.503Z,1019.85
2019-04-29T04:53:43.493Z,1019.83
2019-04-29T04:54:43.491Z,1019.79
2019-04-29T04:55:43.469Z,1019.85
2019-04-29T04:56:43.458Z,1019.82
2019-04-29T04:57:43.458Z,1019.82
2019-04-29T04:58:43.439Z,1019.81
2019-04-29T04:59:43.428Z,1019.85
2019-04-29T05:00:43.415Z,1019.86
2019-04-29T05:01:43.404Z,1019.83
2019-04-29T05:02:43.393Z,1019.85
2019-04-29T05:03:43.393Z,1019.85
2019-04-29T05:04:43.372Z,1019.91
2019-04-29T05:05:43.362Z,1019.92
2019-04-29T05:06:43.358Z,1019.95
2019-04-29T05:07:43.341Z,1020.00
2019-04-29T05:08:43.332Z,1019.98
2019-04-29T05:09:43.333Z,1020.01
2019-04-29T05:10:43.315Z,1020.04
2019-04-29T05:11:43.299Z,1020.08
2019-04-29T05:12:43.288Z,1020.10
2019-04-29T05:13:43.278Z,1020.12
2019-04-29T05:14:43.267Z,1020.10
2019-04-29T05:15:43.268Z,1020.08
2019-04-29T05:16:43.247Z,1020.12
2019-04-29T05:17:43.235Z,1020.10
2019-04-29T05:18:43.224Z,1020.10
2019-04-29T05:19:43.213Z,1020.14
2019-04-29T05:20:43.209Z,1020.12
2019-04-29T05:21:43.202Z,1020.20
2019-04-29T05:22:43.180Z,1020.22
2019-04-29T05:23:43.236Z,1020.13
2019-04-29T05:24:43.158Z,1020.21
2019-04-29T05:25:43.147Z,1020.22
2019-04-29T05:26:43.137Z,1020.22
2019-04-29T05:27:43.137Z,1020.23
2019-04-29T05:28:43.114Z,1020.26
2019-04-29T05:29:43.105Z,1020.23
2019-04-29T05:30:43.093Z,1020.20
2019-04-29T05:31:43.083Z,1020.25
2019-04-29T05:32:43.072Z,1020.22
2019-04-29T05:33:43.072Z,1020.23
2019-04-29T05:34:46.636Z,1020.28
2019-04-29T05:35:44.039Z,1020.28
2019-04-29T05:36:43.031Z,1020.31
2019-04-29T05:37:43.023Z,1020.33
2019-04-29T05:38:43.008Z,1020.36
2019-04-29T05:39:43.017Z,1020.36
2019-04-29T05:40:43.052Z,1020.36
2019-04-29T05:41:42.975Z,1020.35
2019-04-29T05:42:42.964Z,1020.40
2019-04-29T05:43:42.953Z,1020.35
2019-04-29T05:44:42.946Z,1020.36
2019-04-29T05:45:46.385Z,1020.37
2019-04-29T05:46:42.921Z,1020.36
2019-04-29T05:47:42.910Z,1020.38
2019-04-29T05:48:42.920Z,1020.37
2019-04-29T05:49:42.901Z,1020.38
2019-04-29T05:50:42.878Z,1020.44
2019-04-29T05:51:42.906Z,1020.43
2019-04-29T05:52:42.859Z,1020.48
2019-04-29T05:53:42.850Z,1020.48
2019-04-29T05:54:42.834Z,1020.53
2019-04-29T05:55:42.823Z,1020.57
2019-04-29T05:56:42.815Z,1020.55
2019-04-29T05:57:42.825Z,1020.56
2019-04-29T05:58:42.791Z,1020.56
2019-04-29T05:59:43.402Z,1020.53
2019-04-29T06:00:42.772Z,1020.60
2019-04-29T06:01:47.018Z,1020.64
2019-04-29T06:02:43.758Z,1020.63
2019-04-29T06:03:44.382Z,1020.75
2019-04-29T06:04:42.726Z,1020.79
2019-04-29T06:05:42.715Z,1020.78
2019-04-29T06:06:42.706Z,1020.80
2019-04-29T06:07:42.695Z,1020.85
2019-04-29T06:08:42.749Z,1020.83
2019-04-29T06:09:42.671Z,1020.81
2019-04-29T06:10:42.661Z,1020.82
2019-04-29T06:11:42.655Z,1020.86
2019-04-29T06:12:44.447Z,1020.93
2019-04-29T06:13:42.628Z,1020.91
2019-04-29T06:14:42.630Z,1020.93
2019-04-29T06:15:42.607Z,1020.99
2019-04-29T06:16:42.595Z,1021.04
2019-04-29T06:17:44.720Z,1021.02
2019-04-29T06:18:42.574Z,1020.96
2019-04-29T06:19:42.562Z,1021.05
2019-04-29T06:20:42.570Z,1021.07
2019-04-29T06:21:42.544Z,1021.05
2019-04-29T06:22:43.506Z,1021.10
2019-04-29T06:23:42.529Z,1021.09
2019-04-29T06:24:42.510Z,1021.08
2019-04-29T06:25:42.496Z,1021.19
2019-04-29T06:26:43.830Z,1021.20
2019-04-29T06:27:42.474Z,1021.22
2019-04-29T06:28:42.475Z,1021.21
2019-04-29T06:29:42.454Z,1021.24
2019-04-29T06:30:45.283Z,1021.18
2019-04-29T06:31:43.444Z,1021.19
2019-04-29T06:32:42.420Z,1021.17
2019-04-29T06:33:42.411Z,1021.21
2019-04-29T06:34:42.398Z,1021.25
2019-04-29T06:35:43.370Z,1021.24
2019-04-29T06:36:42.377Z,1021.23
2019-04-29T06:37:42.379Z,1021.11
2019-04-29T06:38:42.356Z,1021.20
2019-04-29T06:39:42.345Z,1021.11
2019-04-29T06:40:42.334Z,1021.20
2019-04-29T06:41:45.163Z,1021.26
2019-04-29T06:42:42.312Z,1021.28
2019-04-29T06:43:42.314Z,1021.32
2019-04-29T06:44:44.330Z,1021.39
2019-04-29T06:45:43.280Z,1021.44
2019-04-29T06:46:42.271Z,1021.44
2019-04-29T06:47:42.257Z,1021.28
2019-04-29T06:48:42.247Z,1021.45
2019-04-29T06:49:42.302Z,1021.53
2019-04-29T06:50:42.228Z,1021.57
2019-04-29T06:51:42.220Z,1021.50
2019-04-29T06:52:42.204Z,1021.45
2019-04-29T06:53:42.194Z,1021.50
2019-04-29T06:54:42.182Z,1021.57
2019-04-29T06:55:42.207Z,1021.54
2019-04-29T06:56:42.167Z,1021.56
2019-04-29T06:57:42.152Z,1021.56
2019-04-29T06:58:42.138Z,1021.53
2019-04-29T06:59:43.029Z,1021.65
2019-04-29T07:00:43.126Z,1021.66
2019-04-29T07:01:42.133Z,1021.16
2019-04-29T07:02:45.467Z,1021.16
2019-04-29T07:03:43.088Z,1021.10
2019-04-29T07:04:42.073Z,1021.28
2019-04-29T07:05:42.062Z,1021.22
2019-04-29T07:06:42.076Z,1021.21
2019-04-29T07:07:42.047Z,1021.24
2019-04-29T07:08:42.049Z,1021.19
2019-04-29T07:09:42.017Z,1021.18
2019-04-29T07:10:42.006Z,1021.20
2019-04-29T07:11:41.996Z,1021.12
2019-04-29T07:12:42.854Z,1021.10
2019-04-29T07:13:42.973Z,1021.12
2019-04-29T07:14:41.965Z,1021.09
2019-04-29T07:15:43.462Z,1021.09
2019-04-29T07:16:42.940Z,1021.11
2019-04-29T07:17:43.048Z,1021.11
2019-04-29T07:18:48.342Z,1021.08
2019-04-29T07:19:42.912Z,1021.10
2019-04-29T07:20:41.898Z,1021.05
2019-04-29T07:21:46.838Z,1021.10
2019-04-29T07:22:42.878Z,1021.08
2019-04-29T07:23:41.866Z,1021.14
2019-04-29T07:24:41.872Z,1021.15
2019-04-29T07:25:41.852Z,1021.17
2019-04-29T07:26:41.833Z,1021.20
2019-04-29T07:27:44.269Z,1021.21
2019-04-29T07:28:41.812Z,1021.18
2019-04-29T07:29:41.804Z,1021.19
2019-04-29T07:31:00.483Z,1021.29
2019-04-29T07:31:42.781Z,1021.19
2019-04-29T07:32:46.451Z,1021.17
2019-04-29T07:33:42.757Z,1021.26
2019-04-29T07:34:41.751Z,1021.26
2019-04-29T07:35:42.921Z,1021.25
2019-04-29T07:36:42.736Z,1021.25
2019-04-29T07:37:41.723Z,1021.25
2019-04-29T07:38:42.195Z,1021.30
2019-04-29T07:39:41.694Z,1021.29
2019-04-29T07:40:43.363Z,1021.27
2019-04-29T07:41:41.670Z,1021.32
2019-04-29T07:42:41.675Z,1021.33
2019-04-29T07:43:43.180Z,1021.33
2019-04-29T07:44:44.041Z,1021.33
2019-04-29T07:45:44.462Z,1021.29
2019-04-29T07:46:56.357Z,1021.32
2019-04-29T07:47:55.570Z,1021.33
2019-04-29T07:48:43.827Z,1021.37
2019-04-29T07:49:41.585Z,1021.42
2019-04-29T07:50:41.573Z,1021.42
2019-04-29T07:51:41.562Z,1021.48
2019-04-29T07:52:41.555Z,1021.43
2019-04-29T07:53:45.577Z,1021.50
2019-04-29T07:54:41.538Z,1021.51
2019-04-29T07:55:41.526Z,1021.54
2019-04-29T07:56:42.413Z,1021.55
2019-04-29T07:57:41.496Z,1021.51
2019-04-29T07:58:41.485Z,1021.57
2019-04-29T07:59:41.493Z,1021.48
2019-04-29T08:00:44.550Z,1021.53
2019-04-29T08:01:42.453Z,1021.54
2019-04-29T08:02:41.442Z,1021.60
2019-04-29T08:03:41.433Z,1021.50
2019-04-29T08:04:41.421Z,1021.51
2019-04-29T08:05:41.420Z,1021.52
2019-04-29T08:06:42.899Z,1021.49
2019-04-29T08:07:41.388Z,1021.60
2019-04-29T08:08:53.843Z,1021.59
2019-04-29T08:09:44.150Z,1021.52
2019-04-29T08:10:55.697Z,1021.53
2019-04-29T08:11:42.377Z,1021.53
2019-04-29T08:12:41.334Z,1021.55
2019-04-29T08:13:41.323Z,1021.59
2019-04-29T08:14:41.313Z,1021.56
2019-04-29T08:15:43.230Z,1021.61
2019-04-29T08:16:41.291Z,1021.49
2019-04-29T08:17:41.299Z,1021.46
2019-04-29T08:18:41.270Z,1021.44
2019-04-29T08:19:41.260Z,1021.45
2019-04-29T08:20:41.440Z,1021.41
2019-04-29T08:21:41.243Z,1021.43
2019-04-29T08:22:41.227Z,1021.37
2019-04-29T08:23:42.368Z,1021.42
2019-04-29T08:24:41.208Z,1021.52
2019-04-29T08:25:41.196Z,1021.46
2019-04-29T08:26:47.117Z,1021.53
2019-04-29T08:27:43.806Z,1021.57
2019-04-29T08:28:41.169Z,1021.49
2019-04-29T08:29:41.164Z,1021.46
2019-04-29T08:30:41.781Z,1021.29
2019-04-29T08:31:41.135Z,1021.38
2019-04-29T08:32:41.121Z,1021.34
2019-04-29T08:33:42.513Z,1021.26
2019-04-29T08:34:42.112Z,1021.22
2019-04-29T08:35:41.089Z,1021.25
2019-04-29T08:36:41.079Z,1021.28
2019-04-29T08:37:41.067Z,1021.32
2019-04-29T08:38:41.056Z,1021.33
2019-04-29T08:39:41.048Z,1021.35
2019-04-29T08:40:45.061Z,1021.28
2019-04-29T08:41:42.030Z,1021.23
2019-04-29T08:42:41.879Z,1021.19
2019-04-29T08:43:41.003Z,1021.21
2019-04-29T08:44:40.992Z,1021.12
2019-04-29T08:45:40.982Z,1021.21
2019-04-29T08:46:44.525Z,1021.27
2019-04-29T08:47:41.957Z,1021.17
2019-04-29T08:48:40.949Z,1021.12
2019-04-29T08:49:40.937Z,1021.15
2019-04-29T08:50:40.927Z,1021.21
2019-04-29T08:51:40.917Z,1021.18
2019-04-29T08:52:40.922Z,1021.13
2019-04-29T08:53:40.904Z,1021.14
2019-04-29T08:54:40.884Z,1021.16
2019-04-29T08:55:40.873Z,1021.14
2019-04-29T08:57:01.793Z,1021.14
2019-04-29T08:57:41.860Z,1021.19
2019-04-29T08:58:44.083Z,1021.13
2019-04-29T08:59:41.828Z,1021.21
2019-04-29T09:00:40.817Z,1021.12
2019-04-29T09:01:40.816Z,1021.16
2019-04-29T09:02:41.307Z,1021.16
2019-04-29T09:03:41.795Z,1021.15
2019-04-29T09:04:52.897Z,1021.16
2019-04-29T09:05:46.104Z,1021.19
2019-04-29T09:06:41.751Z,1021.21
2019-04-29T09:07:40.743Z,1021.19
2019-04-29T09:08:54.026Z,1021.19
2019-04-29T09:09:41.731Z,1021.20
2019-04-29T09:10:40.715Z,1021.20
2019-04-29T09:11:43.584Z,1021.21
2019-04-29T09:12:41.689Z,1021.17
2019-04-29T09:13:40.678Z,1021.24
2019-04-29T09:14:40.665Z,1021.16
2019-04-29T09:15:40.664Z,1021.15
2019-04-29T09:16:40.643Z,1021.21
2019-04-29T09:17:40.632Z,1021.21
2019-04-29T09:18:40.622Z,1021.24
2019-04-29T09:19:40.610Z,1021.21
2019-04-29T09:20:40.600Z,1021.24
2019-04-29T09:21:40.609Z,1021.19
2019-04-29T09:22:40.577Z,1021.21
2019-04-29T09:23:40.567Z,1021.21
2019-04-29T09:24:43.568Z,1021.20
2019-04-29T09:25:41.547Z,1021.30
2019-04-29T09:26:40.535Z,1021.23
2019-04-29T09:27:44.620Z,1021.17
2019-04-29T09:28:40.513Z,1021.22
2019-04-29T09:29:40.502Z,1021.21
2019-04-29T09:30:40.492Z,1021.22
2019-04-29T09:31:40.482Z,1021.18
2019-04-29T09:32:40.472Z,1021.21
2019-04-29T09:33:44.182Z,1021.24
2019-04-29T09:34:41.447Z,1021.16
2019-04-29T09:35:40.638Z,1021.14
2019-04-29T09:36:43.921Z,1021.25
2019-04-29T09:37:41.418Z,1021.21
2019-04-29T09:38:40.406Z,1021.20
2019-04-29T09:39:43.534Z,1021.16
2019-04-29T09:40:40.386Z,1021.21
2019-04-29T09:41:40.373Z,1021.25
2019-04-29T09:42:40.362Z,1021.09
2019-04-29T09:43:40.352Z,1021.11
2019-04-29T09:44:44.758Z,1021.09
2019-04-29T09:45:40.352Z,1021.15
2019-04-29T09:46:40.320Z,1021.13
2019-04-29T09:47:40.309Z,1021.12
2019-04-29T09:48:40.298Z,1021.11
2019-04-29T09:49:40.288Z,1021.07
2019-04-29T09:50:41.017Z,1021.05
2019-04-29T09:51:40.279Z,1021.05
2019-04-29T09:52:40.255Z,1021.07
2019-04-29T09:53:40.243Z,1021.03
2019-04-29T09:54:40.232Z,1021.04
2019-04-29T09:55:41.325Z,1021.06
2019-04-29T09:56:40.211Z,1021.00
2019-04-29T09:57:40.209Z,1020.95
2019-04-29T09:58:40.188Z,1020.95
2019-04-29T09:59:40.179Z,1020.97
2019-04-29T10:00:40.730Z,1020.93
2019-04-29T10:01:40.155Z,1020.92
2019-04-29T10:02:40.143Z,1020.91
2019-04-29T10:03:40.144Z,1020.93
2019-04-29T10:04:40.125Z,1020.99
2019-04-29T10:05:40.111Z,1020.91
2019-04-29T10:06:40.104Z,1020.87
2019-04-29T10:07:40.089Z,1020.89
2019-04-29T10:08:40.079Z,1020.87
2019-04-29T10:09:40.079Z,1020.92
2019-04-29T10:10:40.056Z,1020.90
2019-04-29T10:11:40.045Z,1020.82
2019-04-29T10:12:40.034Z,1020.81
2019-04-29T10:13:40.023Z,1020.88
2019-04-29T10:14:40.013Z,1020.78
2019-04-29T10:15:40.011Z,1020.81
2019-04-29T10:16:39.994Z,1020.93
2019-04-29T10:17:39.979Z,1020.81
2019-04-29T10:18:39.967Z,1020.84
2019-04-29T10:19:39.957Z,1020.77
2019-04-29T10:20:39.946Z,1020.75
2019-04-29T10:21:39.948Z,1020.71
2019-04-29T10:22:39.934Z,1020.69
2019-04-29T10:23:39.917Z,1020.78
2019-04-29T10:24:39.905Z,1020.73
2019-04-29T10:25:39.896Z,1020.68
2019-04-29T10:26:39.881Z,1020.72
2019-04-29T10:27:39.881Z,1020.70
2019-04-29T10:28:39.860Z,1020.73
2019-04-29T10:29:39.869Z,1020.73
2019-04-29T10:30:39.839Z,1020.78
2019-04-29T10:31:39.829Z,1020.68
2019-04-29T10:32:42.345Z,1020.64
2019-04-29T10:33:39.859Z,1020.72
2019-04-29T10:34:42.905Z,1020.76
2019-04-29T10:35:40.696Z,1020.67
2019-04-29T10:36:39.774Z,1020.73
2019-04-29T10:37:39.765Z,1020.75
2019-04-29T10:38:40.501Z,1020.88
2019-04-29T10:39:42.384Z,1020.90
2019-04-29T10:40:39.730Z,1020.94
2019-04-29T10:41:40.335Z,1020.79
2019-04-29T10:42:39.709Z,1020.64
2019-04-29T10:43:39.709Z,1020.63
2019-04-29T10:44:39.687Z,1020.57
2019-04-29T10:45:40.563Z,1020.59
2019-04-29T10:46:39.666Z,1020.58
2019-04-29T10:47:39.655Z,1020.58
2019-04-29T10:48:39.645Z,1020.67
2019-04-29T10:49:40.436Z,1020.64
2019-04-29T10:50:39.623Z,1020.62
2019-04-29T10:51:39.623Z,1020.58
2019-04-29T10:52:40.234Z,1020.57
2019-04-29T10:53:39.595Z,1020.57
2019-04-29T10:54:39.581Z,1020.57
2019-04-29T10:55:39.569Z,1020.55
2019-04-29T10:56:41.024Z,1020.48
2019-04-29T10:57:39.558Z,1020.58
2019-04-29T10:58:39.538Z,1020.56
2019-04-29T10:59:40.687Z,1020.49
2019-04-29T11:00:40.515Z,1020.48
2019-04-29T11:01:39.507Z,1020.45
2019-04-29T11:02:39.495Z,1020.50
2019-04-29T11:03:39.494Z,1020.48
2019-04-29T11:04:39.474Z,1020.46
2019-04-29T11:05:44.522Z,1020.48
2019-04-29T11:06:40.450Z,1020.47
2019-04-29T11:07:39.442Z,1020.49
2019-04-29T11:08:42.836Z,1020.51
2019-04-29T11:09:39.429Z,1020.47
2019-04-29T11:10:39.408Z,1020.45
2019-04-29T11:11:39.397Z,1020.42
2019-04-29T11:12:39.390Z,1020.42
2019-04-29T11:13:46.873Z,1020.39
2019-04-29T11:14:40.374Z,1020.34
2019-04-29T11:15:39.359Z,1020.37
2019-04-29T11:16:46.480Z,1020.34
2019-04-29T11:17:44.561Z,1020.41
2019-04-29T11:18:39.322Z,1020.39
2019-04-29T11:19:40.007Z,1020.33
2019-04-29T11:20:39.317Z,1020.42
2019-04-29T11:21:39.293Z,1020.40
2019-04-29T11:22:39.479Z,1020.40
2019-04-29T11:23:39.271Z,1020.40
2019-04-29T11:24:39.259Z,1020.44
2019-04-29T11:25:40.585Z,1020.37
2019-04-29T11:26:39.247Z,1020.35
2019-04-29T11:27:39.225Z,1020.36
2019-04-29T11:28:39.216Z,1020.30
2019-04-29T11:29:39.207Z,1020.35
2019-04-29T11:30:39.747Z,1020.26
2019-04-29T11:31:39.182Z,1020.29
2019-04-29T11:32:39.198Z,1020.27
2019-04-29T11:33:40.096Z,1020.29
2019-04-29T11:34:39.150Z,1020.27
2019-04-29T11:35:39.144Z,1020.31
2019-04-29T11:36:43.730Z,1020.33
2019-04-29T11:37:40.127Z,1020.26
2019-04-29T11:38:39.107Z,1020.25
2019-04-29T11:39:39.095Z,1020.32
2019-04-29T11:40:43.641Z,1020.25
2019-04-29T11:41:40.075Z,1020.29
2019-04-29T11:42:41.773Z,1020.22
2019-04-29T11:43:39.064Z,1020.13
2019-04-29T11:44:39.049Z,1020.18
2019-04-29T11:45:40.392Z,1020.14
2019-04-29T11:46:39.020Z,1020.15
2019-04-29T11:47:39.009Z,1020.17
2019-04-29T11:48:39.005Z,1020.13
2019-04-29T11:49:38.998Z,1020.11
2019-04-29T11:50:38.977Z,1020.10
2019-04-29T11:51:57.036Z,1020.13
2019-04-29T11:52:39.953Z,1020.18
2019-04-29T11:53:38.945Z,1020.14
2019-04-29T11:54:38.933Z,1020.14
2019-04-29T11:55:38.942Z,1020.09
2019-04-29T11:56:39.850Z,1020.08
2019-04-29T11:57:41.175Z,1020.09
2019-04-29T11:58:38.893Z,1020.10
2019-04-29T11:59:38.879Z,1020.04
2019-04-29T12:00:38.872Z,1020.05
2019-04-29T12:01:42.979Z,1020.08
2019-04-29T12:02:45.680Z,1020.09
2019-04-29T12:03:39.842Z,1020.08
2019-04-29T12:04:41.949Z,1020.12
2019-04-29T12:05:40.242Z,1020.08